Time;durP1;ratioP1;P1;durP2;ratioP2;P2;SDS_P1;SDS_P2;PMS_P1;PMS_P2;Temp;Humidity;BMP_temperature;BMP_pressure;BME280_temperature;BME280_humidity;BME280_pressure;Samples;Min_cycle;Max_cycle;Signal;HPM_P1;HPM_P2
2022/06/15 00:02:38;;;;;;;0.75;0.30;;;16.00;89.40;;;;;;10238743;28;20081;-71
2022/06/15 00:07:40;;;;;;;0.55;0.30;;;15.80;90.30;;;;;;10235491;28;20067;-70
2022/06/15 00:12:42;;;;;;;0.80;0.30;;;15.80;90.30;;;;;;10231694;28;20062;-71
2022/06/15 00:17:44;;;;;;;0.55;0.35;;;15.70;91.20;;;;;;10233629;28;20419;-70
2022/06/15 00:22:45;;;;;;;1.40;0.30;;;15.40;92.10;;;;;;10228842;28;20416;-70
2022/06/15 00:27:47;;;;;;;1.65;0.30;;;15.40;92.80;;;;;;10234151;28;20043;-71
2022/06/15 00:32:49;;;;;;;0.50;0.30;;;15.40;93.40;;;;;;10229612;28;20464;-71
2022/06/15 00:37:50;;;;;;;2.35;0.38;;;15.20;94.40;;;;;;10231111;28;20059;-71
2022/06/15 00:42:52;;;;;;;3.55;0.35;;;15.10;95.00;;;;;;10231223;28;20059;-71
2022/06/15 00:47:54;;;;;;;3.60;0.47;;;15.00;95.90;;;;;;10225860;28;20063;-70
2022/06/15 00:53:05;;;;;;;1.00;0.50;;;15.00;96.20;;;;;;10244997;28;20103;-70
2022/06/15 00:58:10;;;;;;;2.20;0.30;;;14.90;96.70;;;;;;10232162;28;20058;-71
2022/06/15 01:03:12;;;;;;;2.78;0.43;;;14.90;97.20;;;;;;10231521;28;20060;-71
2022/06/15 01:08:26;;;;;;;0.40;0.30;;;14.80;97.60;;;;;;10225427;28;20851;-72
2022/06/15 01:13:36;;;;;;;1.27;0.35;;;14.80;98.10;;;;;;10230455;28;20051;-70
2022/06/15 01:18:43;;;;;;;0.98;0.30;;;14.70;98.60;;;;;;10235553;28;20063;-70
2022/06/15 01:24:02;;;;;;;5.03;0.40;;;14.70;99.30;;;;;;10233915;28;20130;-71
2022/06/15 01:29:22;;;;;;;0.50;0.30;;;14.50;99.90;;;;;;10225238;28;20070;-71
2022/06/15 01:34:36;;;;;;;2.15;0.50;;;14.50;99.90;;;;;;10233171;28;20055;-70
2022/06/15 01:39:44;;;;;;;1.23;0.40;;;14.40;99.90;;;;;;10235896;28;20568;-69
2022/06/15 01:44:47;;;;;;;;;;;13.40;99.90;;;;;;10230434;28;20051;-71
2022/06/15 01:50:10;;;;;;;1.98;0.45;;;14.30;99.90;;;;;;10233132;28;19969;-71
2022/06/15 01:55:19;;;;;;;5.53;0.40;;;14.20;99.90;;;;;;10234917;28;20511;-71
2022/06/15 02:00:22;;;;;;;4.45;0.40;;;14.20;99.90;;;;;;10229831;28;20090;-71
2022/06/15 02:05:52;;;;;;;1.08;0.52;;;14.10;99.90;;;;;;10219608;28;20059;-72
2022/06/15 02:11:15;;;;;;;2.20;0.40;;;14.10;99.90;;;;;;10219309;28;20409;-70
2022/06/15 02:16:37;;;;;;;1.65;0.73;;;14.10;99.90;;;;;;10230848;28;20106;-71
2022/06/15 02:21:42;;;;;;;1.40;0.35;;;14.00;99.90;;;;;;10227244;28;20054;-70
2022/06/15 02:26:44;;;;;;;5.25;0.50;;;14.00;99.90;;;;;;10230145;28;20051;-71
2022/06/15 02:31:45;;;;;;;0.93;0.30;;;14.00;99.90;;;;;;10230753;28;20051;-71
2022/06/15 02:36:47;;;;;;;3.70;0.50;;;13.90;99.90;;;;;;10233830;28;20090;-71
2022/06/15 02:42:19;;;;;;;1.10;0.50;;;13.90;99.90;;;;;;10238855;28;20054;-70
2022/06/15 02:47:24;;;;;;;2.17;0.70;;;13.80;99.90;;;;;;10234477;28;20059;-71
2022/06/15 02:52:31;;;;;;;2.08;0.52;;;13.80;99.90;;;;;;10240138;28;20470;-71
2022/06/15 02:57:44;;;;;;;1.20;0.50;;;13.70;99.90;;;;;;10218417;28;20051;-71
2022/06/15 03:02:45;;;;;;;1.10;0.50;;;13.50;99.90;;;;;;10239595;28;20047;-71
2022/06/15 03:07:47;;;;;;;1.85;0.50;;;13.60;99.90;;;;;;10243273;28;20475;-71
2022/06/15 03:12:49;;;;;;;2.55;0.68;;;13.50;99.90;;;;;;10236895;28;20062;-68
2022/06/15 03:17:52;;;;;;;1.63;0.60;;;13.50;99.90;;;;;;10241045;28;20055;-68
2022/06/15 03:22:54;;;;;;;1.52;0.60;;;13.50;99.90;;;;;;10243098;28;20546;-68
2022/06/15 03:27:56;;;;;;;2.67;0.60;;;13.50;99.90;;;;;;10231949;28;20047;-68
2022/06/15 03:32:57;;;;;;;6.35;0.50;;;13.50;99.90;;;;;;10228314;28;20052;-68
2022/06/15 03:38:08;;;;;;;5.95;0.60;;;13.40;99.90;;;;;;10241617;28;20062;-69
2022/06/15 03:43:10;;;;;;;2.35;0.65;;;13.40;99.90;;;;;;10233153;28;20070;-69
2022/06/15 03:48:13;;;;;;;1.90;0.50;;;13.40;99.90;;;;;;10230873;28;20117;-68
2022/06/15 03:53:14;;;;;;;1.15;0.50;;;13.40;99.90;;;;;;10238948;28;20093;-69
2022/06/15 03:58:19;;;;;;;3.35;0.40;;;13.50;99.90;;;;;;10236665;28;20137;-68
2022/06/15 04:03:20;;;;;;;2.83;0.60;;;13.50;99.90;;;;;;10242502;28;20051;-69
2022/06/15 04:08:35;;;;;;;1.33;0.60;;;13.40;99.90;;;;;;10233230;28;20550;-68
2022/06/15 04:13:38;;;;;;;1.23;0.57;;;13.40;99.90;;;;;;10240054;28;20309;-69
2022/06/15 04:18:40;;;;;;;0.88;0.57;;;13.40;99.90;;;;;;10242617;28;20047;-69
2022/06/15 04:23:42;;;;;;;2.60;0.60;;;13.30;99.90;;;;;;10241872;28;20047;-69
2022/06/15 04:28:44;;;;;;;6.70;0.80;;;13.40;99.90;;;;;;10221677;28;20055;-70
2022/06/15 04:33:45;;;;;;;3.65;0.60;;;13.40;99.90;;;;;;10237682;28;20111;-70
2022/06/15 04:38:47;;;;;;;0.80;0.55;;;13.50;99.90;;;;;;10238643;28;20067;-68
2022/06/15 04:43:49;;;;;;;1.70;0.60;;;13.60;99.90;;;;;;10236102;28;20122;-68
2022/06/15 04:48:50;;;;;;;7.35;1.20;;;13.60;99.90;;;;;;10247969;28;20572;-69
2022/06/15 04:53:53;;;;;;;4.03;0.80;;;13.80;99.90;;;;;;10236013;28;20055;-69
2022/06/15 04:58:56;;;;;;;2.75;0.70;;;13.90;99.90;;;;;;10238101;28;20063;-69
2022/06/15 05:04:18;;;;;;;3.72;0.70;;;14.00;99.90;;;;;;10549632;27;20367;-62
2022/06/15 05:09:20;;;;;;;4.35;0.75;;;14.20;99.90;;;;;;10542671;28;20032;-63
2022/06/15 05:14:21;;;;;;;3.30;0.75;;;14.40;99.90;;;;;;10534372;28;20044;-63
2022/06/15 05:19:23;;;;;;;1.35;0.60;;;14.50;99.90;;;;;;10540013;28;20127;-63
2022/06/15 05:24:25;;;;;;;3.38;1.27;;;14.60;99.90;;;;;;10544272;28;20052;-63
2022/06/15 05:29:27;;;;;;;1.33;0.70;;;14.80;99.90;;;;;;10535082;28;20050;-63
2022/06/15 05:34:28;;;;;;;2.40;0.80;;;14.90;99.90;;;;;;10537762;28;20486;-63
2022/06/15 05:39:30;;;;;;;1.95;0.60;;;15.10;99.90;;;;;;10540023;28;20088;-63
2022/06/15 05:44:51;;;;;;;3.13;1.02;;;15.30;99.90;;;;;;10539173;28;20470;-63
2022/06/15 05:49:52;;;;;;;2.15;0.47;;;15.50;99.90;;;;;;10538880;28;20032;-63
2022/06/15 05:54:56;;;;;;;1.98;0.70;;;15.70;99.90;;;;;;10535225;28;20039;-64
2022/06/15 05:59:58;;;;;;;1.38;0.55;;;15.90;99.90;;;;;;10538321;28;20494;-64
2022/06/15 06:05:00;;;;;;;1.58;0.60;;;16.10;99.90;;;;;;10537658;28;20036;-63
2022/06/15 06:10:03;;;;;;;5.60;0.60;;;16.30;99.90;;;;;;10537116;28;20477;-63
2022/06/15 06:15:06;;;;;;;5.97;0.50;;;16.50;99.90;;;;;;10509353;28;20037;-63
2022/06/15 06:20:08;;;;;;;2.63;0.60;;;16.70;99.90;;;;;;10511662;28;20052;-63
2022/06/15 06:25:10;;;;;;;3.33;0.50;;;17.00;99.90;;;;;;10508543;28;20032;-64
2022/06/15 06:30:13;;;;;;;4.22;0.50;;;17.20;99.90;;;;;;10500208;22;20087;-68
2022/06/15 06:35:14;;;;;;;1.60;0.40;;;17.40;99.90;;;;;;10471290;28;20049;-69
2022/06/15 06:40:16;;;;;;;1.65;0.32;;;17.60;99.90;;;;;;10465818;28;20041;-69
2022/06/15 06:45:18;;;;;;;1.10;0.40;;;17.80;99.90;;;;;;10467337;28;20045;-68
2022/06/15 06:50:20;;;;;;;2.67;0.40;;;18.00;99.90;;;;;;10467548;28;20041;-70
2022/06/15 06:55:26;;;;;;;5.60;0.47;;;18.20;99.90;;;;;;10464609;28;20048;-72
2022/06/15 07:00:29;;;;;;;1.73;0.50;;;18.30;99.90;;;;;;10469326;28;20436;-68
2022/06/15 07:10:51;;;;;;;2.28;0.40;;;18.80;99.90;;;;;;2936031;26;20072;-62
2022/06/15 07:15:53;;;;;;;1.27;0.40;;;19.00;99.60;;;;;;10470508;28;20059;-62
2022/06/15 07:21:00;;;;;;;0.38;0.30;;;19.20;98.50;;;;;;10473877;28;20096;-62
2022/06/15 07:26:07;;;;;;;3.22;0.52;;;19.40;96.40;;;;;;10467007;28;20047;-62
2022/06/15 07:31:17;;;;;;;0.90;0.40;;;19.50;95.90;;;;;;10470766;28;20056;-62
2022/06/15 07:36:20;;;;;;;1.50;0.40;;;19.70;95.10;;;;;;10470770;28;20049;-62
2022/06/15 07:41:23;;;;;;;1.10;0.30;;;19.90;94.60;;;;;;10463494;28;20072;-62
2022/06/15 07:46:25;;;;;;;0.68;0.50;;;20.10;93.80;;;;;;10476330;28;20052;-62
2022/06/15 07:51:35;;;;;;;0.88;0.50;;;20.40;93.70;;;;;;10470380;28;20075;-62
2022/06/15 07:56:39;;;;;;;1.98;0.40;;;20.70;94.20;;;;;;10468834;28;20079;-62
2022/06/15 08:01:42;;;;;;;0.88;0.40;;;20.90;92.20;;;;;;10468462;28;20055;-62
2022/06/15 08:06:46;;;;;;;4.95;0.45;;;21.10;92.40;;;;;;10433654;22;20462;-76
2022/06/15 08:17:14;;;;;;;1.05;0.40;;;21.30;89.90;;;;;;10349828;28;20055;-76
2022/06/15 08:22:16;;;;;;;;;;;21.60;89.10;;;;;;10353883;28;20046;-77
2022/06/15 08:27:20;;;;;;;1.10;0.45;;;21.90;88.60;;;;;;10350409;28;19925;-78
2022/06/15 08:32:22;;;;;;;1.15;0.40;;;22.00;88.70;;;;;;10369185;28;20049;-80
2022/06/15 08:37:24;;;;;;;4.00;0.38;;;22.20;88.20;;;;;;10352015;28;20054;-80
2022/06/15 08:42:55;;;;;;;2.40;0.70;;;22.40;87.50;;;;;;10328035;28;20050;-79
2022/06/15 08:48:32;;;;;;;1.75;0.50;;;22.60;86.40;;;;;;10329980;28;20073;-78
2022/06/15 08:54:10;;;;;;;3.70;0.50;;;22.70;83.80;;;;;;10341600;28;20060;-78
2022/06/15 08:59:45;;;;;;;1.15;0.35;;;23.00;85.50;;;;;;10336041;28;20055;-78
2022/06/15 09:05:35;;;;;;;1.77;1.00;;;23.20;84.40;;;;;;10365132;28;20052;-79
2022/06/15 09:11:19;;;;;;;1.23;0.85;;;23.20;82.00;;;;;;10380127;28;20069;-79
2022/06/15 09:17:06;;;;;;;1.40;0.40;;;23.30;83.40;;;;;;10373459;28;20057;-79
2022/06/15 09:22:32;;;;;;;;;;;23.60;84.50;;;;;;10371532;28;20096;-79
2022/06/15 09:28:03;;;;;;;3.58;0.57;;;23.80;82.50;;;;;;10375520;28;19927;-78
2022/06/15 09:33:32;;;;;;;2.88;0.45;;;24.00;80.90;;;;;;10380465;28;20058;-82
2022/06/15 09:51:25;;;;;;;4.30;0.68;;;24.50;77.00;;;;;;10495059;22;20053;-72
2022/06/15 09:56:49;;;;;;;3.50;0.88;;;24.80;76.20;;;;;;10397890;28;20073;-70
2022/06/15 10:02:29;;;;;;;1.88;0.70;;;25.00;73.60;;;;;;10407908;28;20607;-75
2022/06/15 10:07:54;;;;;;;2.75;0.70;;;25.30;74.70;;;;;;10399175;28;20123;-71
2022/06/15 10:27:38;;;;;;;0.77;0.50;;;25.90;68.60;;;;;;10530171;27;20898;-71
2022/06/15 11:49:00;;;;;;;1.17;0.45;;;30.60;52.20;;;;;;10671995;22;20452;-70
2022/06/15 11:54:38;;;;;;;3.85;0.50;;;30.60;50.90;;;;;;10453488;28;20060;-70
2022/06/15 12:00:38;;;;;;;4.88;0.60;;;30.30;48.10;;;;;;10452775;28;20048;-70
2022/06/15 12:06:21;;;;;;;3.47;0.60;;;30.70;50.30;;;;;;10408148;28;20053;-70
2022/06/15 14:59:57;;;;;;;1.55;0.40;;;36.20;39.30;;;;;;10330702;28;20058;-61
2022/06/15 15:04:59;;;;;;;1.73;0.30;;;36.50;53.90;;;;;;10284388;28;20047;-60
2022/06/15 15:15:17;;;;;;;1.98;0.40;;;36.10;37.40;;;;;;10231445;28;20430;-62
2022/06/15 15:20:36;;;;;;;1.00;0.47;;;35.10;37.40;;;;;;10240030;28;20426;-62
2022/06/15 15:25:51;;;;;;;2.08;0.40;;;35.80;37.90;;;;;;10238365;28;20047;-62
2022/06/15 15:42:08;;;;;;;0.82;0.50;;;35.30;37.30;;;;;;10234209;28;20047;-63
2022/06/15 15:47:13;;;;;;;1.17;0.50;;;35.50;37.70;;;;;;10239528;28;20063;-63
2022/06/15 15:52:18;;;;;;;2.90;0.40;;;35.40;37.70;;;;;;10246877;28;20055;-63
2022/06/15 15:57:20;;;;;;;3.70;0.40;;;35.40;37.00;;;;;;10256720;28;20067;-65
2022/06/15 16:02:25;;;;;;;0.60;0.40;;;35.70;38.30;;;;;;10255169;28;20472;-64
2022/06/15 16:07:28;;;;;;;0.65;0.40;;;36.20;38.50;;;;;;10255553;28;20077;-64
2022/06/15 16:12:32;;;;;;;0.70;0.40;;;36.40;37.30;;;;;;10246292;28;20464;-63
2022/06/15 16:17:34;;;;;;;2.45;0.40;;;36.40;37.20;;;;;;10252488;28;20110;-63
2022/06/15 16:22:41;;;;;;;3.70;0.40;;;36.70;38.00;;;;;;10252676;28;20402;-63
2022/06/15 16:27:45;;;;;;;2.80;0.40;;;36.80;37.60;;;;;;10252888;28;20054;-63
2022/06/15 16:32:48;;;;;;;1.63;0.30;;;36.90;37.60;;;;;;10252142;28;20106;-63
2022/06/15 16:37:49;;;;;;;0.73;0.30;;;37.20;37.40;;;;;;10254286;28;20051;-64
2022/06/15 16:42:51;;;;;;;4.20;0.50;;;36.90;37.50;;;;;;10253902;28;20091;-64
2022/06/15 16:47:53;;;;;;;2.47;0.30;;;36.90;37.30;;;;;;10252797;28;20054;-64
2022/06/15 16:52:56;;;;;;;1.42;0.40;;;36.90;36.80;;;;;;10252306;28;20070;-64
2022/06/15 16:57:58;;;;;;;0.47;0.43;;;37.00;36.90;;;;;;10249304;28;20050;-64
2022/06/15 17:02:59;;;;;;;4.10;0.68;;;37.00;36.90;;;;;;10231917;28;20070;-65
2022/06/15 17:08:03;;;;;;;0.90;0.40;;;37.20;37.30;;;;;;10250187;28;20121;-64
2022/06/15 17:13:06;;;;;;;2.17;0.40;;;36.90;36.50;;;;;;10251062;28;20063;-64
2022/06/15 17:18:08;;;;;;;0.77;0.30;;;36.90;37.20;;;;;;10250264;28;20046;-69
2022/06/15 17:23:10;;;;;;;2.08;0.50;;;36.90;36.80;;;;;;10244408;28;20161;-64
2022/06/15 17:28:13;;;;;;;5.10;0.63;;;36.80;37.20;;;;;;10249140;28;20058;-63
2022/06/15 17:33:15;;;;;;;1.53;0.40;;;36.70;37.10;;;;;;10246612;28;20062;-63
2022/06/15 17:38:17;;;;;;;0.55;0.40;;;36.40;36.80;;;;;;10245943;28;20140;-63
2022/06/15 17:43:18;;;;;;;0.80;0.40;;;36.40;37.40;;;;;;10248253;28;20113;-63
2022/06/15 17:48:20;;;;;;;0.52;0.40;;;36.20;37.10;;;;;;10244977;28;20058;-64
2022/06/15 17:53:22;;;;;;;3.95;0.50;;;36.00;38.40;;;;;;10247261;28;20102;-63
2022/06/15 17:58:24;;;;;;;1.90;0.50;;;35.60;40.00;;;;;;10245945;28;20065;-63
2022/06/15 18:03:26;;;;;;;2.15;0.70;;;35.00;40.90;;;;;;10245150;28;20091;-63
2022/06/15 18:08:30;;;;;;;13.40;1.10;;;34.60;41.80;;;;;;10245723;28;20054;-64
2022/06/15 18:13:37;;;;;;;0.60;0.43;;;34.30;41.80;;;;;;10243467;28;20062;-64
2022/06/15 18:23:45;;;;;;;1.08;0.50;;;33.20;44.40;;;;;;10152248;29;20100;-65
2022/06/15 18:28:47;;;;;;;1.05;0.60;;;32.40;45.10;;;;;;10159123;29;20139;-64
2022/06/15 18:33:49;;;;;;;1.10;0.43;;;31.80;46.00;;;;;;10158166;29;20048;-63
2022/06/15 18:38:51;;;;;;;1.45;0.50;;;31.20;46.90;;;;;;10194506;29;20760;-61
2022/06/15 18:49:15;;;;;;;0.98;0.70;;;30.30;48.90;;;;;;10206000;29;20055;-62
2022/06/15 18:54:17;;;;;;;4.85;1.00;;;29.90;50.40;;;;;;10203306;29;20055;-61
2022/06/15 18:59:18;;;;;;;0.93;0.68;;;29.60;51.70;;;;;;10207896;29;20043;-62
2022/06/15 19:04:20;;;;;;;2.50;0.80;;;29.10;53.00;;;;;;10204220;29;20066;-63
2022/06/15 19:09:24;;;;;;;3.50;0.90;;;28.80;54.00;;;;;;10205738;29;20070;-62
2022/06/15 19:14:25;;;;;;;1.00;0.70;;;28.50;54.80;;;;;;10206538;29;20055;-62
2022/06/15 19:19:27;;;;;;;1.35;0.80;;;28.10;55.30;;;;;;10204874;28;21597;-62
2022/06/15 19:24:44;;;;;;;2.88;0.98;;;27.70;56.60;;;;;;10210271;28;20059;-61
2022/06/15 19:29:51;;;;;;;2.60;1.02;;;27.30;57.40;;;;;;10204397;29;20552;-62
2022/06/15 19:34:53;;;;;;;1.98;1.08;;;27.00;58.00;;;;;;10206283;29;20067;-62
2022/06/15 19:39:55;;;;;;;6.80;1.00;;;26.90;60.20;;;;;;10201190;29;20063;-61
2022/06/15 19:44:57;;;;;;;3.33;1.23;;;26.60;59.70;;;;;;10212051;29;20224;-61
2022/06/15 19:49:59;;;;;;;5.07;0.90;;;26.40;61.40;;;;;;10208680;29;20138;-63
2022/06/15 19:55:05;;;;;;;2.23;1.00;;;26.00;61.40;;;;;;10190919;29;20114;-62
2022/06/15 20:00:11;;;;;;;1.42;0.80;;;25.80;62.20;;;;;;10205648;28;20058;-62
2022/06/15 20:05:13;;;;;;;4.07;1.02;;;25.60;63.80;;;;;;10208373;29;20043;-62
2022/06/15 20:10:23;;;;;;;3.50;0.98;;;25.30;63.70;;;;;;10211474;29;20051;-66
2022/06/15 20:15:25;;;;;;;1.45;0.80;;;25.10;62.90;;;;;;10206786;29;20063;-58
2022/06/15 20:20:32;;;;;;;2.45;0.75;;;25.00;63.30;;;;;;10203474;28;20114;-60
2022/06/15 20:25:37;;;;;;;4.32;0.73;;;24.80;64.00;;;;;;10205266;28;20051;-57
2022/06/15 20:30:39;;;;;;;2.55;0.80;;;24.50;64.60;;;;;;10183656;29;20072;-58
2022/06/15 20:35:41;;;;;;;2.75;0.95;;;24.40;65.70;;;;;;10185223;29;20080;-59
2022/06/15 20:40:44;;;;;;;9.05;1.38;;;24.30;67.40;;;;;;10169133;28;22855;-59
2022/06/15 20:45:46;;;;;;;7.82;1.63;;;24.10;70.60;;;;;;10206742;29;20498;-58
2022/06/15 20:51:09;;;;;;;6.22;1.77;;;24.00;72.80;;;;;;10204952;29;20083;-58
2022/06/15 21:01:31;;;;;;;4.57;1.17;;;23.50;75.30;;;;;;10200775;28;20499;-58
2022/06/15 21:06:35;;;;;;;1.90;1.10;;;23.40;73.90;;;;;;10202105;28;20812;-59
2022/06/15 21:22:18;;;;;;;6.13;1.83;;;22.70;77.20;;;;;;10205289;29;20062;-61
2022/06/15 21:27:20;;;;;;;9.75;3.38;;;22.40;76.60;;;;;;10207259;29;20062;-61
2022/06/15 21:32:22;;;;;;;11.55;4.32;;;22.30;76.70;;;;;;10201922;29;20138;-60
2022/06/15 21:37:23;;;;;;;9.10;4.63;;;22.10;76.80;;;;;;10203387;29;20051;-61
2022/06/15 21:42:26;;;;;;;14.40;6.72;;;22.10;77.30;;;;;;10207211;29;20537;-61
2022/06/15 21:47:30;;;;;;;12.38;4.65;;;22.10;79.00;;;;;;10204372;28;20478;-61
2022/06/15 21:52:32;;;;;;;16.45;4.65;;;21.90;79.60;;;;;;10191592;28;20118;-61
2022/06/15 21:57:34;;;;;;;7.97;3.00;;;21.80;79.90;;;;;;10188143;28;20059;-60
2022/06/15 22:02:36;;;;;;;2.38;1.20;;;21.80;80.20;;;;;;10210773;28;20122;-61
2022/06/15 22:07:38;;;;;;;2.05;0.90;;;21.80;80.10;;;;;;10201023;29;20059;-60
2022/06/15 22:12:40;;;;;;;3.80;1.00;;;21.80;80.10;;;;;;10166685;29;20107;-60
2022/06/15 22:17:42;;;;;;;2.47;0.95;;;21.80;79.90;;;;;;10169094;29;20072;-60
2022/06/15 22:22:44;;;;;;;1.17;0.60;;;21.80;79.80;;;;;;10199984;29;20518;-60
2022/06/15 22:27:45;;;;;;;3.78;0.70;;;21.80;79.60;;;;;;10196282;28;20114;-60
2022/06/15 22:32:48;;;;;;;0.90;0.50;;;21.80;79.60;;;;;;10202293;29;20394;-62
2022/06/15 22:37:50;;;;;;;2.75;0.93;;;21.80;79.40;;;;;;10202571;29;20063;-63
2022/06/15 22:42:52;;;;;;;1.77;0.60;;;21.80;79.50;;;;;;10193916;29;20219;-62
2022/06/15 22:47:54;;;;;;;5.68;0.77;;;21.80;79.60;;;;;;10203149;28;20060;-62
2022/06/15 22:52:55;;;;;;;3.20;0.60;;;21.70;79.80;;;;;;10199100;28;20517;-63
2022/06/15 22:57:57;;;;;;;1.65;0.77;;;21.60;80.30;;;;;;10203834;28;20048;-62
2022/06/15 23:03:02;;;;;;;2.75;0.80;;;21.60;80.40;;;;;;10200971;28;20570;-64
2022/06/15 23:08:05;;;;;;;7.80;0.70;;;21.50;80.60;;;;;;10203171;28;20969;-62
2022/06/15 23:13:07;;;;;;;6.13;1.92;;;21.50;80.50;;;;;;10205860;29;20046;-62
2022/06/15 23:18:09;;;;;;;3.78;0.70;;;21.40;80.90;;;;;;10197907;29;20075;-61
2022/06/15 23:23:11;;;;;;;3.10;0.60;;;21.40;81.10;;;;;;10203005;29;20059;-60
2022/06/15 23:28:13;;;;;;;1.10;0.57;;;21.30;81.30;;;;;;10208684;29;20048;-62
2022/06/15 23:33:15;;;;;;;2.72;0.73;;;21.30;81.50;;;;;;10209801;29;20096;-62
2022/06/15 23:38:17;;;;;;;4.32;1.00;;;21.30;81.70;;;;;;10205235;28;20402;-61
2022/06/15 23:43:22;;;;;;;3.42;0.60;;;21.20;81.70;;;;;;10206381;28;20136;-62
2022/06/15 23:48:24;;;;;;;2.00;0.70;;;21.20;81.90;;;;;;10212484;29;20137;-62
2022/06/15 23:53:25;;;;;;;3.88;0.60;;;21.20;81.90;;;;;;10211007;29;20122;-62
2022/06/15 23:58:27;;;;;;;2.35;0.57;;;21.10;82.20;;;;;;10205929;28;20486;-62
